createdAt,value
2019-03-17T00:04:07.653Z,100.00
2019-03-17T00:06:34.669Z,100.00
2019-03-17T00:09:01.591Z,100.00
2019-03-17T00:11:28.472Z,100.00
2019-03-17T00:13:55.199Z,100.00
2019-03-17T00:16:22.070Z,100.00
2019-03-17T00:18:48.928Z,100.00
2019-03-17T00:21:15.669Z,100.00
2019-03-17T00:23:42.393Z,100.00
2019-03-17T00:26:09.547Z,100.00
2019-03-17T00:28:36.289Z,100.00
2019-03-17T00:31:03.398Z,100.00
2019-03-17T00:33:30.366Z,100.00
2019-03-17T00:35:57.387Z,100.00
2019-03-17T00:38:24.133Z,100.00
2019-03-17T00:40:51.309Z,100.00
2019-03-17T00:43:17.956Z,100.00
2019-03-17T00:45:44.709Z,100.00
2019-03-17T00:48:11.648Z,100.00
2019-03-17T00:50:38.448Z,100.00
2019-03-17T00:53:05.179Z,100.00
2019-03-17T00:55:31.976Z,100.00
2019-03-17T00:57:59.731Z,100.00
2019-03-17T01:01:08.554Z,100.00
2019-03-17T01:03:35.287Z,100.00
2019-03-17T01:06:02.246Z,100.00
2019-03-17T01:08:29.190Z,100.00
2019-03-17T01:10:56.214Z,100.00
2019-03-17T01:13:23.163Z,100.00
2019-03-17T01:15:50.018Z,100.00
2019-03-17T01:18:16.866Z,100.00
2019-03-17T01:20:43.604Z,100.00
2019-03-17T01:23:10.742Z,100.00
2019-03-17T01:25:37.362Z,100.00
2019-03-17T01:28:04.193Z,99.31
2019-03-17T01:30:31.027Z,100.00
2019-03-17T01:32:57.754Z,100.00
2019-03-17T01:35:25.045Z,100.00
2019-03-17T01:37:52.190Z,98.93
2019-03-17T01:40:19.037Z,97.92
2019-03-17T01:42:45.774Z,99.28
2019-03-17T01:45:12.936Z,100.00
2019-03-17T01:47:39.576Z,98.19
2019-03-17T01:50:27.991Z,98.98
2019-03-17T01:53:07.759Z,93.64
2019-03-17T01:55:34.865Z,95.12
2019-03-17T01:58:01.911Z,94.85
2019-03-17T02:00:28.988Z,97.14
2019-03-17T02:02:56.152Z,97.15
2019-03-17T02:05:23.225Z,93.39
2019-03-17T02:07:50.300Z,96.31
2019-03-17T02:10:17.461Z,94.50
2019-03-17T02:12:44.563Z,95.06
2019-03-17T02:15:11.696Z,95.14
2019-03-17T02:17:39.133Z,95.10
2019-03-17T02:20:06.413Z,94.67
2019-03-17T02:22:33.510Z,94.39
2019-03-17T02:25:00.625Z,94.09
2019-03-17T02:27:27.693Z,91.90
2019-03-17T02:29:54.970Z,93.22
2019-03-17T02:32:22.111Z,94.93
2019-03-17T02:34:49.374Z,91.88
2019-03-17T02:37:16.426Z,92.71
2019-03-17T02:39:43.646Z,92.88
2019-03-17T02:42:10.757Z,92.36
2019-03-17T02:44:38.135Z,92.24
2019-03-17T02:47:05.289Z,93.47
2019-03-17T02:49:32.382Z,92.23
2019-03-17T02:51:59.888Z,92.30
2019-03-17T02:54:39.324Z,92.83
2019-03-17T02:57:06.063Z,92.23
2019-03-17T02:59:32.694Z,91.89
2019-03-17T03:01:59.363Z,92.13
2019-03-17T03:04:26.139Z,92.08
2019-03-17T03:06:52.950Z,92.38
2019-03-17T03:09:19.742Z,93.16
2019-03-17T03:11:46.476Z,92.23
2019-03-17T03:14:13.215Z,91.49
2019-03-17T03:16:39.904Z,90.52
2019-03-17T03:19:06.924Z,92.18
2019-03-17T03:21:33.660Z,92.92
2019-03-17T03:24:00.436Z,92.24
2019-03-17T03:26:27.160Z,92.16
2019-03-17T03:28:53.989Z,92.68
2019-03-17T03:31:20.771Z,92.16
2019-03-17T03:33:48.338Z,91.83
2019-03-17T03:36:15.075Z,92.02
2019-03-17T03:38:42.250Z,91.17
2019-03-17T03:41:08.984Z,92.63
2019-03-17T03:43:35.737Z,90.24
2019-03-17T03:46:02.685Z,92.19
2019-03-17T03:48:29.425Z,89.50
2019-03-17T03:50:56.172Z,91.04
2019-03-17T03:53:23.047Z,92.60
2019-03-17T03:55:52.666Z,92.86
2019-03-17T03:58:19.394Z,91.98
2019-03-17T04:00:46.267Z,90.83
2019-03-17T04:03:13.146Z,90.66
2019-03-17T04:05:39.870Z,91.31
2019-03-17T04:08:06.674Z,93.05
2019-03-17T04:10:33.406Z,92.02
2019-03-17T04:13:00.149Z,93.68
2019-03-17T04:15:27.275Z,92.82
2019-03-17T04:17:54.013Z,92.75
2019-03-17T04:20:20.762Z,91.98
2019-03-17T04:22:47.567Z,93.02
2019-03-17T04:25:16.406Z,92.51
2019-03-17T04:27:43.127Z,91.50
2019-03-17T04:30:09.974Z,92.44
2019-03-17T04:35:17.942Z,93.99
2019-03-17T04:37:45.215Z,93.43
2019-03-17T04:40:12.795Z,92.88
2019-03-17T04:42:39.976Z,95.07
2019-03-17T04:45:07.037Z,94.29
2019-03-17T04:47:34.105Z,94.31
2019-03-17T04:50:01.718Z,94.50
2019-03-17T04:52:47.962Z,92.75
2019-03-17T04:55:14.771Z,94.43
2019-03-17T04:57:41.837Z,93.54
2019-03-17T05:00:08.942Z,93.80
2019-03-17T05:02:35.813Z,94.10
2019-03-17T05:05:02.725Z,94.72
2019-03-17T05:07:29.578Z,93.66
2019-03-17T05:09:56.564Z,92.73
2019-03-17T05:12:23.283Z,92.48
2019-03-17T05:14:50.297Z,93.39
2019-03-17T05:17:17.035Z,91.36
2019-03-17T05:19:43.804Z,93.12
2019-03-17T05:22:10.440Z,92.37
2019-03-17T05:24:37.226Z,92.64
2019-03-17T05:27:03.959Z,93.23
2019-03-17T05:29:30.799Z,92.56
2019-03-17T05:31:57.600Z,91.92
2019-03-17T05:34:24.460Z,90.82
2019-03-17T05:36:51.216Z,92.07
2019-03-17T05:39:18.064Z,91.73
2019-03-17T05:41:45.363Z,92.30
2019-03-17T05:44:12.111Z,92.53
2019-03-17T05:46:38.919Z,92.48
2019-03-17T05:49:05.767Z,93.19
2019-03-17T05:51:33.118Z,92.73
2019-03-17T05:53:59.898Z,91.88
2019-03-17T05:56:26.648Z,92.11
2019-03-17T05:58:53.528Z,93.65
2019-03-17T06:01:20.332Z,94.37
2019-03-17T06:03:49.616Z,94.03
2019-03-17T06:06:16.800Z,93.83
2019-03-17T06:08:43.806Z,92.91
2019-03-17T06:11:10.563Z,93.55
2019-03-17T06:13:37.833Z,93.78
2019-03-17T06:16:05.379Z,93.72
2019-03-17T06:18:32.167Z,94.92
2019-03-17T06:20:58.916Z,94.25
2019-03-17T06:23:25.768Z,94.78
2019-03-17T06:25:54.068Z,95.38
2019-03-17T06:28:22.287Z,94.94
2019-03-17T06:30:49.206Z,94.43
2019-03-17T06:33:16.673Z,93.61
2019-03-17T06:35:43.630Z,93.42
2019-03-17T06:38:10.719Z,94.03
2019-03-17T06:40:37.554Z,93.78
2019-03-17T06:43:05.056Z,94.00
2019-03-17T06:45:31.995Z,94.07
2019-03-17T06:47:59.343Z,93.34
2019-03-17T06:50:26.250Z,93.87
2019-03-17T06:52:53.873Z,93.28
2019-03-17T06:55:21.221Z,92.93
2019-03-17T06:57:47.962Z,92.69
2019-03-17T07:00:15.504Z,91.27
2019-03-17T07:02:43.380Z,90.96
2019-03-17T07:05:10.286Z,90.90
2019-03-17T07:07:43.866Z,91.59
2019-03-17T07:10:06.516Z,90.05
2019-03-17T07:12:33.481Z,90.80
2019-03-17T07:15:00.963Z,90.60
2019-03-17T07:17:27.602Z,91.28
2019-03-17T07:19:54.356Z,88.54
2019-03-17T07:22:21.507Z,89.25
2019-03-17T07:24:48.159Z,88.25
2019-03-17T07:27:14.886Z,85.87
2019-03-17T07:29:41.822Z,89.45
2019-03-17T07:32:08.446Z,87.84
2019-03-17T07:34:35.466Z,89.90
2019-03-17T07:37:02.350Z,88.97
2019-03-17T07:39:29.226Z,88.79
2019-03-17T07:41:56.185Z,87.04
2019-03-17T07:44:22.879Z,85.10
2019-03-17T07:46:49.728Z,83.94
2019-03-17T07:49:17.209Z,84.96
2019-03-17T07:51:44.184Z,84.41
2019-03-17T07:54:11.477Z,82.30
2019-03-17T07:56:38.216Z,79.86
2019-03-17T07:59:05.135Z,80.70
2019-03-17T08:01:32.081Z,78.60
2019-03-17T08:03:58.833Z,75.68
2019-03-17T08:06:25.735Z,78.84
2019-03-17T08:08:52.474Z,76.89
2019-03-17T08:11:19.228Z,76.05
2019-03-17T08:13:46.239Z,72.54
2019-03-17T08:16:12.973Z,74.56
2019-03-17T08:18:39.778Z,71.75
2019-03-17T08:21:06.553Z,71.56
2019-03-17T08:23:33.285Z,71.15
2019-03-17T08:26:00.269Z,72.63
2019-03-17T08:28:27.129Z,70.18
2019-03-17T08:30:53.878Z,69.83
2019-03-17T08:33:20.714Z,68.03
2019-03-17T08:35:47.408Z,68.82
2019-03-17T08:38:21.780Z,66.83
2019-03-17T08:40:42.829Z,68.41
2019-03-17T08:43:09.980Z,67.70
2019-03-17T08:45:36.979Z,67.12
2019-03-17T08:48:03.723Z,68.90
2019-03-17T08:50:30.567Z,67.45
2019-03-17T08:52:57.201Z,67.23
2019-03-17T08:55:23.935Z,67.39
2019-03-17T08:57:50.727Z,65.95
2019-03-17T09:00:17.464Z,67.58
2019-03-17T09:02:44.899Z,67.14
2019-03-17T09:05:11.830Z,66.11
2019-03-17T09:07:39.006Z,67.46
2019-03-17T09:10:07.051Z,66.04
2019-03-17T09:12:33.954Z,66.83
2019-03-17T09:15:00.773Z,64.24
2019-03-17T09:17:27.615Z,66.37
2019-03-17T09:19:54.931Z,63.20
2019-03-17T09:22:21.675Z,62.38
2019-03-17T09:24:48.301Z,65.56
2019-03-17T09:27:15.155Z,60.93
2019-03-17T09:29:41.889Z,61.28
2019-03-17T09:32:08.625Z,60.80
2019-03-17T09:34:35.378Z,60.55
2019-03-17T09:37:02.110Z,62.71
2019-03-17T09:39:28.844Z,58.07
2019-03-17T09:41:55.718Z,59.85
2019-03-17T09:44:22.459Z,61.44
2019-03-17T09:46:49.118Z,58.21
2019-03-17T09:49:15.908Z,60.36
2019-03-17T09:51:42.648Z,60.99
2019-03-17T09:54:09.391Z,55.99
2019-03-17T09:56:36.519Z,57.64
2019-03-17T09:59:03.273Z,59.05
2019-03-17T10:01:30.049Z,56.82
2019-03-17T10:03:57.093Z,54.85
2019-03-17T10:06:24.110Z,56.21
2019-03-17T10:08:59.813Z,56.53
2019-03-17T10:11:20.169Z,57.03
2019-03-17T10:13:47.830Z,60.70
2019-03-17T10:16:14.919Z,59.41
2019-03-17T10:18:42.081Z,59.25
2019-03-17T10:21:09.611Z,58.35
2019-03-17T10:23:36.696Z,58.17
2019-03-17T10:26:03.934Z,58.39
2019-03-17T10:28:31.041Z,57.97
2019-03-17T10:30:58.084Z,58.71
2019-03-17T10:33:25.274Z,57.86
2019-03-17T10:35:52.488Z,57.66
2019-03-17T10:38:19.962Z,58.22
2019-03-17T10:40:47.142Z,57.89
2019-03-17T10:43:14.213Z,60.19
2019-03-17T10:45:41.273Z,60.46
2019-03-17T10:48:08.443Z,61.53
2019-03-17T10:50:35.511Z,61.45
2019-03-17T10:53:02.855Z,62.01
2019-03-17T10:55:30.007Z,62.27
2019-03-17T10:57:57.077Z,62.77
2019-03-17T11:00:24.272Z,62.58
2019-03-17T11:02:51.482Z,60.33
2019-03-17T11:05:18.651Z,61.26
2019-03-17T11:07:46.263Z,62.13
2019-03-17T11:10:13.508Z,60.86
2019-03-17T11:12:40.581Z,61.14
2019-03-17T11:15:09.465Z,61.25
2019-03-17T11:17:36.639Z,62.06
2019-03-17T11:20:04.959Z,63.07
2019-03-17T11:22:32.036Z,62.82
2019-03-17T11:24:59.738Z,63.23
2019-03-17T11:27:26.800Z,64.34
2019-03-17T11:29:53.896Z,63.78
2019-03-17T11:32:21.017Z,64.36
2019-03-17T11:34:48.277Z,64.79
2019-03-17T11:37:15.372Z,63.42
2019-03-17T11:39:42.577Z,64.40
2019-03-17T11:42:09.641Z,63.12
2019-03-17T11:44:36.728Z,62.96
2019-03-17T11:47:04.312Z,63.37
2019-03-17T11:49:31.411Z,64.66
2019-03-17T11:51:58.519Z,64.79
2019-03-17T11:54:25.718Z,64.75
2019-03-17T11:56:53.417Z,65.26
2019-03-17T11:59:21.408Z,65.34
2019-03-17T12:01:48.986Z,64.97
2019-03-17T12:04:16.091Z,66.22
2019-03-17T12:06:43.231Z,66.66
2019-03-17T12:09:10.778Z,67.29
2019-03-17T12:11:37.930Z,67.33
2019-03-17T12:14:05.991Z,67.15
2019-03-17T12:16:33.331Z,65.38
2019-03-17T12:19:00.836Z,67.21
2019-03-17T12:21:27.923Z,67.19
2019-03-17T12:23:55.226Z,67.74
2019-03-17T12:29:19.237Z,67.06
2019-03-17T12:31:46.560Z,67.12
2019-03-17T12:34:13.289Z,67.68
2019-03-17T12:36:40.479Z,67.18
2019-03-17T12:39:07.178Z,66.72
2019-03-17T12:41:34.254Z,67.78
2019-03-17T12:44:01.630Z,66.89
2019-03-17T12:46:28.631Z,67.11
2019-03-17T12:48:55.414Z,68.79
2019-03-17T12:51:22.216Z,66.98
2019-03-17T12:53:48.841Z,67.76
2019-03-17T12:56:15.588Z,67.20
2019-03-17T12:58:42.284Z,68.73
2019-03-17T13:01:09.390Z,69.43
2019-03-17T13:03:36.138Z,69.54
2019-03-17T13:06:03.021Z,70.10
2019-03-17T13:08:42.427Z,71.07
2019-03-17T13:11:09.784Z,70.71
2019-03-17T13:13:36.413Z,74.16
2019-03-17T13:16:03.141Z,74.47
2019-03-17T13:18:29.888Z,73.63
2019-03-17T13:20:56.652Z,87.54
2019-03-17T13:23:23.687Z,93.85
2019-03-17T13:25:50.756Z,98.87
2019-03-17T13:28:17.514Z,100.00
2019-03-17T13:31:04.095Z,100.00
2019-03-17T13:33:31.139Z,100.00
2019-03-17T13:35:58.646Z,100.00
2019-03-17T13:38:25.731Z,100.00
2019-03-17T13:40:52.772Z,100.00
2019-03-17T13:43:20.297Z,100.00
2019-03-17T13:45:47.486Z,100.00
2019-03-17T13:48:14.545Z,100.00
2019-03-17T13:50:41.590Z,100.00
2019-03-17T13:53:08.722Z,100.00
2019-03-17T13:55:35.743Z,100.00
2019-03-17T13:58:02.819Z,100.00
2019-03-17T14:00:29.918Z,100.00
2019-03-17T14:02:57.008Z,100.00
2019-03-17T14:05:24.330Z,100.00
2019-03-17T14:07:51.464Z,100.00
2019-03-17T14:10:40.265Z,100.00
2019-03-17T14:13:00.457Z,100.00
2019-03-17T14:15:27.223Z,100.00
2019-03-17T14:17:54.455Z,100.00
2019-03-17T14:20:21.347Z,100.00
2019-03-17T14:22:48.089Z,100.00
2019-03-17T14:25:17.631Z,100.00
2019-03-17T14:27:44.530Z,100.00
2019-03-17T14:30:31.903Z,100.00
2019-03-17T14:32:58.781Z,100.00
2019-03-17T14:35:25.622Z,100.00
2019-03-17T14:37:52.402Z,100.00
2019-03-17T14:40:19.485Z,100.00
2019-03-17T14:42:46.355Z,100.00
2019-03-17T14:45:13.898Z,100.00
2019-03-17T14:47:40.838Z,100.00
2019-03-17T14:50:09.611Z,100.00
2019-03-17T14:52:36.361Z,100.00
2019-03-17T14:55:03.490Z,100.00
2019-03-17T14:57:30.336Z,100.00
2019-03-17T14:59:57.333Z,100.00
2019-03-17T15:02:24.392Z,100.00
2019-03-17T15:04:51.595Z,100.00
2019-03-17T15:07:18.343Z,100.00
2019-03-17T15:09:45.130Z,100.00
2019-03-17T15:12:25.199Z,100.00
2019-03-17T15:14:52.354Z,100.00
2019-03-17T15:17:19.501Z,100.00
2019-03-17T15:19:46.371Z,100.00
2019-03-17T15:22:13.617Z,100.00
2019-03-17T15:24:40.723Z,100.00
2019-03-17T15:27:07.470Z,100.00
2019-03-17T15:29:34.281Z,100.00
2019-03-17T15:32:01.070Z,100.00
2019-03-17T15:34:28.033Z,100.00
2019-03-17T15:36:54.988Z,100.00
2019-03-17T15:39:21.739Z,98.91
2019-03-17T15:41:48.476Z,98.12
2019-03-17T15:44:15.423Z,98.48
2019-03-17T15:46:42.153Z,99.41
2019-03-17T15:49:08.888Z,98.70
2019-03-17T15:51:35.757Z,98.37
2019-03-17T15:54:02.629Z,96.74
2019-03-17T15:56:49.258Z,98.37
2019-03-17T15:59:16.368Z,98.94
2019-03-17T16:01:43.449Z,99.86
2019-03-17T16:04:10.546Z,98.21
2019-03-17T16:06:37.643Z,95.15
2019-03-17T16:09:07.114Z,97.91
2019-03-17T16:11:34.484Z,98.34
2019-03-17T16:14:01.975Z,95.70
2019-03-17T16:16:29.079Z,98.28
2019-03-17T16:18:56.684Z,97.54
2019-03-17T16:21:24.145Z,97.75
2019-03-17T16:23:51.252Z,98.84
2019-03-17T16:26:18.417Z,97.29
2019-03-17T16:28:45.497Z,99.35
2019-03-17T16:31:12.734Z,97.14
2019-03-17T16:33:40.298Z,98.25
2019-03-17T16:36:07.382Z,98.88
2019-03-17T16:38:34.565Z,98.70
2019-03-17T16:41:01.707Z,98.51
2019-03-17T16:43:28.825Z,97.93
2019-03-17T16:45:56.111Z,99.35
2019-03-17T16:48:23.267Z,97.75
2019-03-17T16:50:50.373Z,98.04
2019-03-17T16:53:17.489Z,96.96
2019-03-17T16:56:03.805Z,99.19
2019-03-17T16:58:30.534Z,100.00
2019-03-17T17:00:57.424Z,98.43
2019-03-17T17:03:24.230Z,98.30
2019-03-17T17:05:51.107Z,100.00
2019-03-17T17:08:17.849Z,99.13
2019-03-17T17:10:49.980Z,100.00
2019-03-17T17:13:34.431Z,100.00
2019-03-17T17:16:14.811Z,100.00
2019-03-17T17:18:42.006Z,100.00
2019-03-17T17:21:09.286Z,100.00
2019-03-17T17:23:36.499Z,100.00
2019-03-17T17:26:03.605Z,100.00
2019-03-17T17:28:31.055Z,100.00
2019-03-17T17:30:59.129Z,100.00
2019-03-17T17:33:27.934Z,100.00
2019-03-17T17:35:56.544Z,100.00
2019-03-17T17:38:23.693Z,100.00
2019-03-17T17:40:52.118Z,100.00
2019-03-17T17:43:19.194Z,100.00
2019-03-17T17:45:46.389Z,100.00
2019-03-17T17:48:13.494Z,100.00
2019-03-17T17:51:00.088Z,100.00
2019-03-17T17:53:27.198Z,100.00
2019-03-17T17:55:54.293Z,99.21
2019-03-17T17:58:21.834Z,95.46
2019-03-17T18:00:49.247Z,91.15
2019-03-17T18:03:16.763Z,87.60
2019-03-17T18:05:43.918Z,82.19
2019-03-17T18:08:11.019Z,81.27
2019-03-17T18:10:38.091Z,79.12
2019-03-17T18:13:05.245Z,78.85
2019-03-17T18:15:32.479Z,78.25
2019-03-17T18:17:59.946Z,77.20
2019-03-17T18:20:27.074Z,76.12
2019-03-17T18:22:54.867Z,75.37
2019-03-17T18:25:21.963Z,75.41
2019-03-17T18:27:49.181Z,74.76
2019-03-17T18:30:16.286Z,74.54
2019-03-17T18:32:43.683Z,75.43
2019-03-17T18:35:11.305Z,76.25
2019-03-17T18:37:38.475Z,75.13
2019-03-17T18:40:06.245Z,75.65
2019-03-17T18:42:33.600Z,77.08
2019-03-17T18:45:01.092Z,77.36
2019-03-17T18:47:28.174Z,77.25
2019-03-17T18:49:55.394Z,80.05
2019-03-17T18:52:22.500Z,78.18
2019-03-17T18:54:49.591Z,79.14
2019-03-17T18:57:17.163Z,79.02
2019-03-17T18:59:44.676Z,78.83
2019-03-17T19:02:11.989Z,79.17
2019-03-17T19:04:39.585Z,80.44
2019-03-17T19:07:06.683Z,80.16
2019-03-17T19:09:33.770Z,80.05
2019-03-17T19:12:01.651Z,80.68
2019-03-17T19:14:29.223Z,80.02
2019-03-17T19:16:56.313Z,80.40
2019-03-17T19:19:23.607Z,80.71
2019-03-17T19:21:50.693Z,80.95
2019-03-17T19:24:17.782Z,80.85
2019-03-17T19:26:44.933Z,81.17
2019-03-17T19:29:12.056Z,81.94
2019-03-17T19:31:39.145Z,83.68
2019-03-17T19:34:06.294Z,85.69
2019-03-17T19:36:33.334Z,84.37
2019-03-17T19:39:00.418Z,84.93
2019-03-17T19:41:27.574Z,84.57
2019-03-17T19:43:54.657Z,84.00
2019-03-17T19:46:22.133Z,87.32
2019-03-17T19:48:49.334Z,85.95
2019-03-17T19:51:18.923Z,88.86
2019-03-17T19:53:45.790Z,87.00
2019-03-17T19:56:12.953Z,86.78
2019-03-17T19:58:40.720Z,88.30
2019-03-17T20:01:09.358Z,89.19
2019-03-17T20:03:36.515Z,88.74
2019-03-17T20:06:03.641Z,88.34
2019-03-17T20:08:30.763Z,90.43
2019-03-17T20:10:58.608Z,90.24
2019-03-17T20:13:45.339Z,92.33
2019-03-17T20:16:12.677Z,91.39
2019-03-17T20:18:41.421Z,92.32
2019-03-17T20:21:09.091Z,91.01
2019-03-17T20:23:36.468Z,93.05
2019-03-17T20:26:03.558Z,92.68
2019-03-17T20:28:30.673Z,92.04
2019-03-17T20:31:17.288Z,92.01
2019-03-17T20:33:44.797Z,91.90
2019-03-17T20:36:11.889Z,92.53
2019-03-17T20:38:39.108Z,92.74
2019-03-17T20:41:06.265Z,91.89
2019-03-17T20:43:35.289Z,91.94
2019-03-17T20:46:02.041Z,92.23
2019-03-17T20:48:28.778Z,91.64
2019-03-17T20:50:55.725Z,90.26
2019-03-17T20:53:22.645Z,91.95
2019-03-17T20:56:09.545Z,94.02
2019-03-17T20:58:36.678Z,94.59
2019-03-17T21:01:03.977Z,94.82
2019-03-17T21:03:31.080Z,94.58
2019-03-17T21:05:58.855Z,93.34
2019-03-17T21:08:26.122Z,93.36
2019-03-17T21:10:53.203Z,92.95
2019-03-17T21:13:20.344Z,94.49
2019-03-17T21:15:47.553Z,94.63
2019-03-17T21:18:14.632Z,93.61
2019-03-17T21:20:41.789Z,93.39
2019-03-17T21:23:08.945Z,94.56
2019-03-17T21:25:36.035Z,94.88
2019-03-17T21:28:03.174Z,93.79
2019-03-17T21:30:30.319Z,94.14
2019-03-17T21:32:57.379Z,93.24
2019-03-17T21:35:24.567Z,93.33
2019-03-17T21:37:51.950Z,93.29
2019-03-17T21:40:19.031Z,94.10
2019-03-17T21:42:46.507Z,95.05
2019-03-17T21:45:13.967Z,93.62
2019-03-17T21:47:41.062Z,94.04
2019-03-17T21:50:10.355Z,93.37
2019-03-17T21:52:37.435Z,93.45
2019-03-17T21:55:04.532Z,94.13
2019-03-17T21:57:31.776Z,95.45
2019-03-17T21:59:59.319Z,94.08
2019-03-17T22:02:26.393Z,95.30
2019-03-17T22:04:53.547Z,94.39
2019-03-17T22:07:20.646Z,93.86
2019-03-17T22:09:48.625Z,93.88
2019-03-17T22:12:15.833Z,94.58
2019-03-17T22:14:42.974Z,94.96
2019-03-17T22:17:10.082Z,95.78
2019-03-17T22:19:37.235Z,95.40
2019-03-17T22:22:04.342Z,95.46
2019-03-17T22:24:44.387Z,94.77
2019-03-17T22:27:11.139Z,94.72
2019-03-17T22:29:37.768Z,94.12
2019-03-17T22:32:04.577Z,94.50
2019-03-17T22:34:31.339Z,94.83
2019-03-17T22:36:58.169Z,95.05
2019-03-17T22:39:25.506Z,95.81
2019-03-17T22:41:52.176Z,94.78
2019-03-17T22:44:24.170Z,95.63
2019-03-17T22:46:47.883Z,93.16
2019-03-17T22:49:15.314Z,93.31
2019-03-17T22:51:42.774Z,93.37
2019-03-17T22:54:10.335Z,95.57
2019-03-17T22:56:37.899Z,94.78
2019-03-17T22:59:04.981Z,95.26
2019-03-17T23:01:32.123Z,96.12
2019-03-17T23:03:59.674Z,96.11
2019-03-17T23:06:27.134Z,94.94
2019-03-17T23:08:54.779Z,94.13
2019-03-17T23:11:22.186Z,94.74
2019-03-17T23:13:49.283Z,94.85
2019-03-17T23:16:16.438Z,93.49
2019-03-17T23:18:43.898Z,94.36
2019-03-17T23:21:11.015Z,94.73
2019-03-17T23:23:39.598Z,94.98
2019-03-17T23:26:07.701Z,95.25
2019-03-17T23:28:34.791Z,93.17
2019-03-17T23:31:21.106Z,94.66
2019-03-17T23:33:48.103Z,93.57
2019-03-17T23:36:15.342Z,93.11
2019-03-17T23:38:42.134Z,92.80
2019-03-17T23:41:08.795Z,92.71
2019-03-17T23:43:35.531Z,92.54
2019-03-17T23:46:02.494Z,93.15
2019-03-17T23:48:29.253Z,92.44
2019-03-17T23:50:55.913Z,92.62
2019-03-17T23:53:22.720Z,92.87
2019-03-17T23:55:49.343Z,93.44
2019-03-17T23:58:16.066Z,93.02
